Terminal Aerodrome Forecast
Issued by NWS

Home | Current Version | Previous Version | Text Only | Print | Product List | Glossary On
Versions: 1 2 3 4 5 6 7 8 9 10 11 12 13 14 15 16 17
623
FTUS43 KGRB 110525
TAFMTW
TAF
KMTW 110525Z 1106/1206 10004KT 2SM -SN OVC020
     FM110800 10004KT 1 1/2SM -SN OVC012
     FM111000 15008KT 1SM -SN OVC010
      TEMPO 1113/1117 3/4SM -SN BR OVC008
     FM111700 16009KT 1 1/2SM -SN BR OVC012
     FM112300 VRB03KT 3SM -SN BR OVC018
     FM120300 27005KT 6SM BR BKN025=

USA.gov is the U.S. government's official web portal to all federal, state and local government web resources and services.